Impacts TAF Board
For situational awareness. Not to be used for flight planning purposes.
IDs:

KSLC - Salt Lake City Intl, UT, US

Issued at 0540 UTC 23 Oct 2018
Updated at 0657 UTC 23 Oct 2018
Potential Impact None Slight Moderate High
Time<<23/19Z 23/20Z 23/21Z 23/22Z 23/23Z 24/00Z 24/01Z 24/02Z 24/03Z 24/04Z 24/05Z 24/06Z 24/07Z>>
Type PRVL PRVL PRVL PRVL PRVL PRVL PRVL PRVL PRVL PRVL PRVL PRVL PRVL
VIS >6 >6 >6 >6 >6 >6 >6 >6 >6 >6 >6 >6 >6
CIG 80 80 100 100 100 100 100 100 120 120 120 120 120
Cover BKN BKN BKN BKN BKN BKN BKN BKN BKN BKN BKN BKN BKN
FltCat VFR VFR VFR VFR VFR VFR VFR VFR VFR VFR VFR VFR VFR
WX -- -- -- -- -- -- -- -- -- -- -- -- --
WDir 290 290 340 340 340 340 340 340 140 140 140 140 140
WSpd 6 6 7 7 7 7 7 7 6 6 6 6 6
WGst -- -- -- -- -- -- -- -- -- -- -- -- --
Raw TAF
KSLC 230540Z 2306/2412 15007KT P6SM BKN080
  FM231900 29006KT P6SM SCT050 BKN080
  FM232100 34007KT P6SM SCT060 BKN100
  FM240300 14006KT P6SM SCT080 BKN120


METAR Board
Radar Display
Forecast Discussion
For situational awareness. Not to be used for flight planning purposes.